sensor_id;sensor_type;location;lat;lon;timestamp;P1;durP1;ratioP1;P2;durP2;ratioP2
11677;SDS011;5895;41.950;24.372;2023-01-16T00:02:21;6.43;;;5.82;;
11677;SDS011;5895;41.950;24.372;2023-01-16T00:04:48;6.60;;;5.95;;
11677;SDS011;5895;41.950;24.372;2023-01-16T00:07:15;6.55;;;5.85;;
11677;SDS011;5895;41.950;24.372;2023-01-16T00:09:43;6.00;;;5.50;;
11677;SDS011;5895;41.950;24.372;2023-01-16T00:12:11;5.90;;;5.30;;
11677;SDS011;5895;41.950;24.372;2023-01-16T00:14:38;5.70;;;5.20;;
11677;SDS011;5895;41.950;24.372;2023-01-16T00:17:05;6.28;;;5.60;;
11677;SDS011;5895;41.950;24.372;2023-01-16T00:19:33;5.88;;;5.28;;
11677;SDS011;5895;41.950;24.372;2023-01-16T00:22:00;7.10;;;6.35;;
11677;SDS011;5895;41.950;24.372;2023-01-16T00:24:29;6.75;;;6.05;;
11677;SDS011;5895;41.950;24.372;2023-01-16T00:26:56;6.75;;;6.15;;
11677;SDS011;5895;41.950;24.372;2023-01-16T00:29:24;6.57;;;5.88;;
11677;SDS011;5895;41.950;24.372;2023-01-16T00:31:51;7.47;;;6.47;;
11677;SDS011;5895;41.950;24.372;2023-01-16T00:34:19;7.45;;;6.65;;
11677;SDS011;5895;41.950;24.372;2023-01-16T00:36:46;7.03;;;6.15;;
11677;SDS011;5895;41.950;24.372;2023-01-16T00:39:13;7.75;;;6.95;;
11677;SDS011;5895;41.950;24.372;2023-01-16T00:41:40;6.82;;;6.13;;
11677;SDS011;5895;41.950;24.372;2023-01-16T00:44:07;7.25;;;5.93;;
11677;SDS011;5895;41.950;24.372;2023-01-16T00:46:36;6.63;;;6.03;;
11677;SDS011;5895;41.950;24.372;2023-01-16T00:49:03;6.82;;;6.13;;
11677;SDS011;5895;41.950;24.372;2023-01-16T00:51:30;6.40;;;5.80;;
11677;SDS011;5895;41.950;24.372;2023-01-16T00:53:57;6.25;;;5.65;;
11677;SDS011;5895;41.950;24.372;2023-01-16T00:56:24;5.03;;;4.63;;
11677;SDS011;5895;41.950;24.372;2023-01-16T00:58:51;6.13;;;5.53;;
11677;SDS011;5895;41.950;24.372;2023-01-16T01:01:18;5.72;;;5.10;;
11677;SDS011;5895;41.950;24.372;2023-01-16T01:03:47;5.18;;;4.72;;
11677;SDS011;5895;41.950;24.372;2023-01-16T01:06:14;6.28;;;5.53;;
11677;SDS011;5895;41.950;24.372;2023-01-16T01:08:41;6.10;;;5.50;;
11677;SDS011;5895;41.950;24.372;2023-01-16T01:11:08;5.70;;;5.10;;
11677;SDS011;5895;41.950;24.372;2023-01-16T01:13:36;5.38;;;4.88;;
11677;SDS011;5895;41.950;24.372;2023-01-16T01:16:04;6.18;;;5.30;;
11677;SDS011;5895;41.950;24.372;2023-01-16T01:18:32;5.40;;;4.90;;
11677;SDS011;5895;41.950;24.372;2023-01-16T01:21:01;4.47;;;4.07;;
11677;SDS011;5895;41.950;24.372;2023-01-16T01:23:28;4.97;;;4.57;;
11677;SDS011;5895;41.950;24.372;2023-01-16T01:25:55;4.68;;;4.28;;
11677;SDS011;5895;41.950;24.372;2023-01-16T01:28:22;7.72;;;5.25;;
11677;SDS011;5895;41.950;24.372;2023-01-16T01:30:49;5.90;;;5.28;;
11677;SDS011;5895;41.950;24.372;2023-01-16T01:33:16;8.27;;;6.53;;
11677;SDS011;5895;41.950;24.372;2023-01-16T01:35:43;7.13;;;5.93;;
11677;SDS011;5895;41.950;24.372;2023-01-16T01:38:12;7.00;;;6.30;;
11677;SDS011;5895;41.950;24.372;2023-01-16T01:40:39;6.63;;;5.32;;
11677;SDS011;5895;41.950;24.372;2023-01-16T01:43:09;8.38;;;6.72;;
11677;SDS011;5895;41.950;24.372;2023-01-16T01:45:39;6.90;;;6.20;;
11677;SDS011;5895;41.950;24.372;2023-01-16T01:48:13;6.03;;;5.53;;
11677;SDS011;5895;41.950;24.372;2023-01-16T01:50:49;5.28;;;4.78;;
11677;SDS011;5895;41.950;24.372;2023-01-16T01:53:23;5.30;;;4.80;;
11677;SDS011;5895;41.950;24.372;2023-01-16T01:55:52;5.15;;;4.65;;
11677;SDS011;5895;41.950;24.372;2023-01-16T01:58:22;6.72;;;4.88;;
11677;SDS011;5895;41.950;24.372;2023-01-16T02:00:50;5.03;;;4.53;;
11677;SDS011;5895;41.950;24.372;2023-01-16T02:03:21;4.18;;;3.78;;
11677;SDS011;5895;41.950;24.372;2023-01-16T02:05:52;4.65;;;4.22;;
11677;SDS011;5895;41.950;24.372;2023-01-16T02:08:24;5.10;;;4.60;;
11677;SDS011;5895;41.950;24.372;2023-01-16T02:10:56;5.10;;;4.60;;
11677;SDS011;5895;41.950;24.372;2023-01-16T02:13:27;5.10;;;4.60;;
11677;SDS011;5895;41.950;24.372;2023-01-16T02:15:54;4.03;;;3.72;;
11677;SDS011;5895;41.950;24.372;2023-01-16T02:18:39;4.82;;;4.22;;
11677;SDS011;5895;41.950;24.372;2023-01-16T02:21:31;5.15;;;4.65;;
11677;SDS011;5895;41.950;24.372;2023-01-16T02:24:25;4.47;;;4.07;;
11677;SDS011;5895;41.950;24.372;2023-01-16T02:27:10;4.50;;;4.10;;
11677;SDS011;5895;41.950;24.372;2023-01-16T02:32:53;3.97;;;3.63;;
11677;SDS011;5895;41.950;24.372;2023-01-16T02:35:40;3.78;;;3.47;;
11677;SDS011;5895;41.950;24.372;2023-01-16T02:38:17;3.88;;;3.58;;
11677;SDS011;5895;41.950;24.372;2023-01-16T02:40:54;4.18;;;3.78;;
11677;SDS011;5895;41.950;24.372;2023-01-16T02:43:28;3.67;;;3.38;;
11677;SDS011;5895;41.950;24.372;2023-01-16T02:46:03;4.20;;;3.83;;
11677;SDS011;5895;41.950;24.372;2023-01-16T02:48:39;3.78;;;3.47;;
11677;SDS011;5895;41.950;24.372;2023-01-16T02:51:15;4.30;;;3.90;;
11677;SDS011;5895;41.950;24.372;2023-01-16T02:53:57;3.67;;;3.38;;
11677;SDS011;5895;41.950;24.372;2023-01-16T02:56:30;3.65;;;3.35;;
11677;SDS011;5895;41.950;24.372;2023-01-16T02:59:06;3.88;;;3.58;;
11677;SDS011;5895;41.950;24.372;2023-01-16T03:01:35;4.25;;;3.85;;
11677;SDS011;5895;41.950;24.372;2023-01-16T03:07:20;4.50;;;4.10;;
11677;SDS011;5895;41.950;24.372;2023-01-16T03:10:02;3.58;;;3.28;;
11677;SDS011;5895;41.950;24.372;2023-01-16T03:12:45;3.90;;;3.60;;
11677;SDS011;5895;41.950;24.372;2023-01-16T03:15:24;3.83;;;3.42;;
11677;SDS011;5895;41.950;24.372;2023-01-16T03:18:00;4.32;;;3.92;;
11677;SDS011;5895;41.950;24.372;2023-01-16T03:20:39;4.82;;;4.43;;
11677;SDS011;5895;41.950;24.372;2023-01-16T03:23:19;6.30;;;5.70;;
11677;SDS011;5895;41.950;24.372;2023-01-16T03:25:56;5.72;;;5.22;;
11677;SDS011;5895;41.950;24.372;2023-01-16T03:28:29;6.10;;;5.50;;
11677;SDS011;5895;41.950;24.372;2023-01-16T03:31:05;5.72;;;5.22;;
11677;SDS011;5895;41.950;24.372;2023-01-16T03:33:39;5.53;;;5.03;;
11677;SDS011;5895;41.950;24.372;2023-01-16T03:36:14;4.80;;;4.40;;
11677;SDS011;5895;41.950;24.372;2023-01-16T03:38:48;5.15;;;4.72;;
11677;SDS011;5895;41.950;24.372;2023-01-16T03:41:19;5.40;;;4.90;;
11677;SDS011;5895;41.950;24.372;2023-01-16T03:43:51;5.13;;;4.50;;
11677;SDS011;5895;41.950;24.372;2023-01-16T03:46:24;5.07;;;4.68;;
11677;SDS011;5895;41.950;24.372;2023-01-16T03:48:55;5.05;;;4.55;;
11677;SDS011;5895;41.950;24.372;2023-01-16T03:51:29;4.90;;;4.50;;
11677;SDS011;5895;41.950;24.372;2023-01-16T03:54:01;4.57;;;4.18;;
11677;SDS011;5895;41.950;24.372;2023-01-16T03:56:34;5.88;;;4.72;;
11677;SDS011;5895;41.950;24.372;2023-01-16T03:59:06;4.72;;;4.30;;
11677;SDS011;5895;41.950;24.372;2023-01-16T04:01:36;4.90;;;4.50;;
11677;SDS011;5895;41.950;24.372;2023-01-16T04:04:06;4.47;;;4.07;;
11677;SDS011;5895;41.950;24.372;2023-01-16T04:06:41;4.55;;;4.15;;
11677;SDS011;5895;41.950;24.372;2023-01-16T04:09:14;4.50;;;4.10;;
11677;SDS011;5895;41.950;24.372;2023-01-16T04:11:48;4.60;;;4.20;;
11677;SDS011;5895;41.950;24.372;2023-01-16T04:14:17;4.43;;;4.03;;
11677;SDS011;5895;41.950;24.372;2023-01-16T04:16:46;4.30;;;3.90;;
11677;SDS011;5895;41.950;24.372;2023-01-16T04:19:15;4.80;;;4.28;;
11677;SDS011;5895;41.950;24.372;2023-01-16T04:21:46;4.40;;;4.00;;
11677;SDS011;5895;41.950;24.372;2023-01-16T04:24:13;5.20;;;4.70;;
11677;SDS011;5895;41.950;24.372;2023-01-16T04:26:41;4.93;;;4.43;;
11677;SDS011;5895;41.950;24.372;2023-01-16T04:29:09;5.15;;;4.65;;
11677;SDS011;5895;41.950;24.372;2023-01-16T04:31:36;6.18;;;5.57;;
11677;SDS011;5895;41.950;24.372;2023-01-16T04:34:03;6.03;;;5.38;;
11677;SDS011;5895;41.950;24.372;2023-01-16T04:36:30;13.70;;;11.15;;
11677;SDS011;5895;41.950;24.372;2023-01-16T04:38:59;10.50;;;9.38;;
11677;SDS011;5895;41.950;24.372;2023-01-16T04:41:26;9.90;;;8.18;;
11677;SDS011;5895;41.950;24.372;2023-01-16T04:44:02;10.77;;;8.75;;
11677;SDS011;5895;41.950;24.372;2023-01-16T04:46:30;12.50;;;10.15;;
11677;SDS011;5895;41.950;24.372;2023-01-16T04:48:57;14.93;;;11.55;;
11677;SDS011;5895;41.950;24.372;2023-01-16T04:51:25;10.50;;;8.70;;
11677;SDS011;5895;41.950;24.372;2023-01-16T04:53:54;11.43;;;9.65;;
11677;SDS011;5895;41.950;24.372;2023-01-16T04:56:22;10.55;;;9.45;;
11677;SDS011;5895;41.950;24.372;2023-01-16T04:58:49;7.22;;;6.40;;
11677;SDS011;5895;41.950;24.372;2023-01-16T05:01:18;5.18;;;4.70;;
11677;SDS011;5895;41.950;24.372;2023-01-16T05:03:46;5.97;;;5.38;;
11677;SDS011;5895;41.950;24.372;2023-01-16T05:06:13;5.82;;;5.32;;
11677;SDS011;5895;41.950;24.372;2023-01-16T05:08:40;6.38;;;5.45;;
11677;SDS011;5895;41.950;24.372;2023-01-16T05:11:07;4.93;;;4.43;;
11677;SDS011;5895;41.950;24.372;2023-01-16T05:13:35;6.07;;;5.47;;
11677;SDS011;5895;41.950;24.372;2023-01-16T05:16:03;5.90;;;5.40;;
11677;SDS011;5895;41.950;24.372;2023-01-16T05:18:31;6.68;;;6.07;;
11677;SDS011;5895;41.950;24.372;2023-01-16T05:20:58;7.00;;;6.40;;
11677;SDS011;5895;41.950;24.372;2023-01-16T05:23:25;6.13;;;5.57;;
11677;SDS011;5895;41.950;24.372;2023-01-16T05:25:53;7.07;;;6.38;;
11677;SDS011;5895;41.950;24.372;2023-01-16T05:28:20;7.05;;;6.35;;
11677;SDS011;5895;41.950;24.372;2023-01-16T05:30:48;6.63;;;6.03;;
11677;SDS011;5895;41.950;24.372;2023-01-16T05:33:15;7.53;;;6.82;;
11677;SDS011;5895;41.950;24.372;2023-01-16T05:35:44;7.43;;;6.72;;
11677;SDS011;5895;41.950;24.372;2023-01-16T05:38:11;7.00;;;6.30;;
11677;SDS011;5895;41.950;24.372;2023-01-16T05:40:38;7.97;;;7.28;;
11677;SDS011;5895;41.950;24.372;2023-01-16T05:43:05;7.25;;;6.55;;
11677;SDS011;5895;41.950;24.372;2023-01-16T05:45:32;6.85;;;6.15;;
11677;SDS011;5895;41.950;24.372;2023-01-16T05:48:01;7.07;;;6.38;;
11677;SDS011;5895;41.950;24.372;2023-01-16T05:50:29;7.35;;;6.68;;
11677;SDS011;5895;41.950;24.372;2023-01-16T05:52:56;6.40;;;5.80;;
11677;SDS011;5895;41.950;24.372;2023-01-16T05:55:23;7.10;;;6.40;;
11677;SDS011;5895;41.950;24.372;2023-01-16T05:57:51;7.47;;;6.78;;
11677;SDS011;5895;41.950;24.372;2023-01-16T06:00:18;6.60;;;6.00;;
11677;SDS011;5895;41.950;24.372;2023-01-16T06:02:45;7.15;;;6.30;;
11677;SDS011;5895;41.950;24.372;2023-01-16T06:05:14;6.80;;;6.20;;
11677;SDS011;5895;41.950;24.372;2023-01-16T06:07:41;8.00;;;7.20;;
11677;SDS011;5895;41.950;24.372;2023-01-16T06:10:09;7.53;;;6.30;;
11677;SDS011;5895;41.950;24.372;2023-01-16T06:12:36;6.70;;;6.00;;
11677;SDS011;5895;41.950;24.372;2023-01-16T06:15:04;7.85;;;6.40;;
11677;SDS011;5895;41.950;24.372;2023-01-16T06:17:32;6.72;;;6.10;;
11677;SDS011;5895;41.950;24.372;2023-01-16T06:19:59;6.55;;;5.95;;
11677;SDS011;5895;41.950;24.372;2023-01-16T06:22:28;6.65;;;6.05;;
11677;SDS011;5895;41.950;24.372;2023-01-16T06:24:55;7.07;;;6.07;;
11677;SDS011;5895;41.950;24.372;2023-01-16T06:27:22;6.53;;;5.93;;
11677;SDS011;5895;41.950;24.372;2023-01-16T06:29:49;6.90;;;6.30;;
11677;SDS011;5895;41.950;24.372;2023-01-16T06:32:16;7.13;;;6.20;;
11677;SDS011;5895;41.950;24.372;2023-01-16T06:34:44;7.07;;;6.38;;
11677;SDS011;5895;41.950;24.372;2023-01-16T06:37:11;6.75;;;6.15;;
11677;SDS011;5895;41.950;24.372;2023-01-16T06:39:39;6.82;;;6.13;;
11677;SDS011;5895;41.950;24.372;2023-01-16T06:42:06;7.60;;;6.60;;
11677;SDS011;5895;41.950;24.372;2023-01-16T06:44:34;6.60;;;6.00;;
11677;SDS011;5895;41.950;24.372;2023-01-16T06:47:01;6.75;;;6.15;;
11677;SDS011;5895;41.950;24.372;2023-01-16T06:49:29;7.38;;;5.90;;
11677;SDS011;5895;41.950;24.372;2023-01-16T06:51:56;6.13;;;5.47;;
11677;SDS011;5895;41.950;24.372;2023-01-16T06:54:25;6.90;;;6.20;;
11677;SDS011;5895;41.950;24.372;2023-01-16T06:56:53;6.55;;;5.95;;
11677;SDS011;5895;41.950;24.372;2023-01-16T06:59:20;6.53;;;5.82;;
11677;SDS011;5895;41.950;24.372;2023-01-16T07:01:47;7.20;;;6.50;;
11677;SDS011;5895;41.950;24.372;2023-01-16T07:04:14;7.05;;;6.45;;
11677;SDS011;5895;41.950;24.372;2023-01-16T07:06:41;6.97;;;6.32;;
11677;SDS011;5895;41.950;24.372;2023-01-16T07:09:09;6.80;;;6.20;;
11677;SDS011;5895;41.950;24.372;2023-01-16T07:11:36;7.70;;;6.32;;
11677;SDS011;5895;41.950;24.372;2023-01-16T07:14:04;5.70;;;5.20;;
11677;SDS011;5895;41.950;24.372;2023-01-16T07:16:49;7.05;;;6.35;;
11677;SDS011;5895;41.950;24.372;2023-01-16T07:19:33;6.68;;;6.07;;
11677;SDS011;5895;41.950;24.372;2023-01-16T07:22:18;6.20;;;5.60;;
11677;SDS011;5895;41.950;24.372;2023-01-16T07:25:02;7.03;;;5.90;;
11677;SDS011;5895;41.950;24.372;2023-01-16T07:27:34;6.22;;;5.60;;
11677;SDS011;5895;41.950;24.372;2023-01-16T07:30:04;7.25;;;6.55;;
11677;SDS011;5895;41.950;24.372;2023-01-16T07:32:32;6.30;;;5.70;;
11677;SDS011;5895;41.950;24.372;2023-01-16T07:34:59;7.03;;;6.32;;
11677;SDS011;5895;41.950;24.372;2023-01-16T07:37:26;6.38;;;5.75;;
11677;SDS011;5895;41.950;24.372;2023-01-16T07:39:53;6.43;;;5.82;;
11677;SDS011;5895;41.950;24.372;2023-01-16T07:42:20;6.97;;;6.28;;
11677;SDS011;5895;41.950;24.372;2023-01-16T07:44:47;6.53;;;5.90;;
11677;SDS011;5895;41.950;24.372;2023-01-16T07:47:15;6.95;;;6.35;;
11677;SDS011;5895;41.950;24.372;2023-01-16T07:49:42;7.72;;;6.93;;
11677;SDS011;5895;41.950;24.372;2023-01-16T07:52:09;6.82;;;6.22;;
11677;SDS011;5895;41.950;24.372;2023-01-16T07:54:36;7.47;;;6.80;;
11677;SDS011;5895;41.950;24.372;2023-01-16T07:57:05;7.10;;;6.40;;
11677;SDS011;5895;41.950;24.372;2023-01-16T07:59:32;7.40;;;6.70;;
11677;SDS011;5895;41.950;24.372;2023-01-16T08:01:59;6.97;;;6.28;;
11677;SDS011;5895;41.950;24.372;2023-01-16T08:04:28;6.70;;;6.10;;
11677;SDS011;5895;41.950;24.372;2023-01-16T08:06:57;6.95;;;6.25;;
11677;SDS011;5895;41.950;24.372;2023-01-16T08:09:24;6.53;;;5.90;;
11677;SDS011;5895;41.950;24.372;2023-01-16T08:11:51;5.50;;;5.00;;
11677;SDS011;5895;41.950;24.372;2023-01-16T08:14:18;6.75;;;6.05;;
11677;SDS011;5895;41.950;24.372;2023-01-16T08:16:45;6.75;;;6.15;;
11677;SDS011;5895;41.950;24.372;2023-01-16T08:19:12;6.28;;;5.68;;
11677;SDS011;5895;41.950;24.372;2023-01-16T08:21:40;6.35;;;5.75;;
11677;SDS011;5895;41.950;24.372;2023-01-16T08:24:08;7.30;;;6.60;;
11677;SDS011;5895;41.950;24.372;2023-01-16T08:26:37;6.75;;;6.05;;
11677;SDS011;5895;41.950;24.372;2023-01-16T08:29:05;6.60;;;6.00;;
11677;SDS011;5895;41.950;24.372;2023-01-16T08:31:32;6.38;;;5.78;;
11677;SDS011;5895;41.950;24.372;2023-01-16T08:33:59;6.13;;;5.53;;
11677;SDS011;5895;41.950;24.372;2023-01-16T08:36:26;7.32;;;5.75;;
11677;SDS011;5895;41.950;24.372;2023-01-16T08:38:55;5.95;;;5.43;;
11677;SDS011;5895;41.950;24.372;2023-01-16T08:41:22;6.70;;;6.10;;
11677;SDS011;5895;41.950;24.372;2023-01-16T08:44:07;6.95;;;6.28;;
11677;SDS011;5895;41.950;24.372;2023-01-16T08:46:53;6.05;;;5.55;;
11677;SDS011;5895;41.950;24.372;2023-01-16T08:49:42;5.80;;;5.30;;
11677;SDS011;5895;41.950;24.372;2023-01-16T08:52:41;6.25;;;5.65;;
11677;SDS011;5895;41.950;24.372;2023-01-16T08:55:11;7.28;;;5.78;;
11677;SDS011;5895;41.950;24.372;2023-01-16T08:57:38;5.70;;;5.20;;
11677;SDS011;5895;41.950;24.372;2023-01-16T09:00:05;6.35;;;5.80;;
11677;SDS011;5895;41.950;24.372;2023-01-16T09:02:34;5.95;;;5.35;;
11677;SDS011;5895;41.950;24.372;2023-01-16T09:05:03;5.75;;;5.25;;
11677;SDS011;5895;41.950;24.372;2023-01-16T09:07:31;5.60;;;4.90;;
11677;SDS011;5895;41.950;24.372;2023-01-16T09:09:58;6.30;;;5.80;;
11677;SDS011;5895;41.950;24.372;2023-01-16T09:12:27;6.30;;;5.47;;
11677;SDS011;5895;41.950;24.372;2023-01-16T09:15:11;6.13;;;5.63;;
11677;SDS011;5895;41.950;24.372;2023-01-16T09:17:38;5.80;;;5.30;;
11677;SDS011;5895;41.950;24.372;2023-01-16T09:20:06;5.93;;;5.43;;
11677;SDS011;5895;41.950;24.372;2023-01-16T09:22:34;6.28;;;5.68;;
11677;SDS011;5895;41.950;24.372;2023-01-16T09:25:02;5.65;;;5.15;;
11677;SDS011;5895;41.950;24.372;2023-01-16T09:27:31;5.50;;;5.00;;
11677;SDS011;5895;41.950;24.372;2023-01-16T09:29:58;5.93;;;5.38;;
11677;SDS011;5895;41.950;24.372;2023-01-16T09:32:25;5.93;;;5.43;;
11677;SDS011;5895;41.950;24.372;2023-01-16T09:34:53;5.93;;;5.32;;
11677;SDS011;5895;41.950;24.372;2023-01-16T09:37:20;5.85;;;4.82;;
11677;SDS011;5895;41.950;24.372;2023-01-16T09:39:47;5.65;;;5.15;;
11677;SDS011;5895;41.950;24.372;2023-01-16T09:42:18;5.43;;;4.90;;
11677;SDS011;5895;41.950;24.372;2023-01-16T09:45:15;5.55;;;5.00;;
11677;SDS011;5895;41.950;24.372;2023-01-16T09:47:47;5.35;;;4.95;;
11677;SDS011;5895;41.950;24.372;2023-01-16T09:50:18;4.90;;;4.50;;
11677;SDS011;5895;41.950;24.372;2023-01-16T09:52:50;4.90;;;4.50;;
11677;SDS011;5895;41.950;24.372;2023-01-16T09:55:37;5.47;;;4.97;;
11677;SDS011;5895;41.950;24.372;2023-01-16T09:58:25;5.30;;;4.90;;
11677;SDS011;5895;41.950;24.372;2023-01-16T10:01:05;5.70;;;5.20;;
11677;SDS011;5895;41.950;24.372;2023-01-16T10:03:35;4.78;;;4.38;;
11677;SDS011;5895;41.950;24.372;2023-01-16T10:06:11;5.00;;;4.60;;
11677;SDS011;5895;41.950;24.372;2023-01-16T10:08:45;5.10;;;4.60;;
11677;SDS011;5895;41.950;24.372;2023-01-16T10:11:35;5.30;;;4.90;;
11677;SDS011;5895;41.950;24.372;2023-01-16T10:14:20;5.75;;;5.25;;
11677;SDS011;5895;41.950;24.372;2023-01-16T10:17:07;5.32;;;4.82;;
11677;SDS011;5895;41.950;24.372;2023-01-16T10:19:45;5.78;;;5.28;;
11677;SDS011;5895;41.950;24.372;2023-01-16T10:22:26;5.55;;;5.03;;
11677;SDS011;5895;41.950;24.372;2023-01-16T10:25:06;5.68;;;5.18;;
11677;SDS011;5895;41.950;24.372;2023-01-16T10:27:44;5.22;;;4.72;;
11677;SDS011;5895;41.950;24.372;2023-01-16T10:30:18;5.60;;;5.07;;
11677;SDS011;5895;41.950;24.372;2023-01-16T10:32:51;5.00;;;4.60;;
11677;SDS011;5895;41.950;24.372;2023-01-16T10:35:27;5.40;;;4.90;;
11677;SDS011;5895;41.950;24.372;2023-01-16T10:38:01;5.13;;;4.68;;
11677;SDS011;5895;41.950;24.372;2023-01-16T10:40:50;5.40;;;5.00;;
11677;SDS011;5895;41.950;24.372;2023-01-16T10:43:23;4.93;;;4.53;;
11677;SDS011;5895;41.950;24.372;2023-01-16T10:46:18;5.18;;;4.78;;
11677;SDS011;5895;41.950;24.372;2023-01-16T10:49:07;6.32;;;5.40;;
11677;SDS011;5895;41.950;24.372;2023-01-16T10:51:55;5.75;;;5.18;;
11677;SDS011;5895;41.950;24.372;2023-01-16T10:54:25;5.40;;;4.90;;
11677;SDS011;5895;41.950;24.372;2023-01-16T10:56:52;4.78;;;4.38;;
11677;SDS011;5895;41.950;24.372;2023-01-16T10:59:23;4.15;;;3.85;;
11677;SDS011;5895;41.950;24.372;2023-01-16T11:01:52;5.18;;;4.78;;
11677;SDS011;5895;41.950;24.372;2023-01-16T11:04:26;4.47;;;4.18;;
11677;SDS011;5895;41.950;24.372;2023-01-16T11:07:12;5.03;;;4.53;;
11677;SDS011;5895;41.950;24.372;2023-01-16T11:09:40;4.40;;;4.05;;
11677;SDS011;5895;41.950;24.372;2023-01-16T11:12:09;4.25;;;3.95;;
11677;SDS011;5895;41.950;24.372;2023-01-16T11:14:59;4.82;;;4.43;;
11677;SDS011;5895;41.950;24.372;2023-01-16T11:17:51;4.22;;;3.90;;
11677;SDS011;5895;41.950;24.372;2023-01-16T11:20:38;4.40;;;4.10;;
11677;SDS011;5895;41.950;24.372;2023-01-16T11:23:13;4.22;;;3.92;;
11677;SDS011;5895;41.950;24.372;2023-01-16T11:25:43;4.88;;;4.47;;
11677;SDS011;5895;41.950;24.372;2023-01-16T11:28:13;4.25;;;3.95;;
11677;SDS011;5895;41.950;24.372;2023-01-16T11:30:45;4.72;;;4.32;;
11677;SDS011;5895;41.950;24.372;2023-01-16T11:33:15;4.65;;;4.28;;
11677;SDS011;5895;41.950;24.372;2023-01-16T11:35:47;5.00;;;4.60;;
11677;SDS011;5895;41.950;24.372;2023-01-16T11:38:19;4.80;;;4.40;;
11677;SDS011;5895;41.950;24.372;2023-01-16T11:40:48;4.95;;;4.55;;
11677;SDS011;5895;41.950;24.372;2023-01-16T11:43:17;4.97;;;4.38;;
11677;SDS011;5895;41.950;24.372;2023-01-16T11:46:07;5.20;;;4.18;;
11677;SDS011;5895;41.950;24.372;2023-01-16T11:48:49;5.15;;;4.65;;
11677;SDS011;5895;41.950;24.372;2023-01-16T11:51:23;5.13;;;4.70;;
11677;SDS011;5895;41.950;24.372;2023-01-16T11:53:53;4.70;;;4.30;;
11677;SDS011;5895;41.950;24.372;2023-01-16T11:56:34;4.10;;;3.75;;
11677;SDS011;5895;41.950;24.372;2023-01-16T11:59:28;4.63;;;4.22;;
11677;SDS011;5895;41.950;24.372;2023-01-16T12:02:27;4.20;;;3.90;;
11677;SDS011;5895;41.950;24.372;2023-01-16T12:05:21;4.30;;;4.00;;
11677;SDS011;5895;41.950;24.372;2023-01-16T12:08:20;4.10;;;3.60;;
11677;SDS011;5895;41.950;24.372;2023-01-16T12:11:01;4.57;;;4.18;;
11677;SDS011;5895;41.950;24.372;2023-01-16T12:13:35;3.85;;;3.55;;
11677;SDS011;5895;41.950;24.372;2023-01-16T12:16:36;4.43;;;4.03;;
11677;SDS011;5895;41.950;24.372;2023-01-16T12:19:15;4.28;;;3.97;;
11677;SDS011;5895;41.950;24.372;2023-01-16T12:22:02;5.88;;;3.95;;
11677;SDS011;5895;41.950;24.372;2023-01-16T12:24:38;4.53;;;4.13;;
11677;SDS011;5895;41.950;24.372;2023-01-16T12:27:14;4.40;;;4.00;;
11677;SDS011;5895;41.950;24.372;2023-01-16T12:29:54;4.30;;;4.00;;
11677;SDS011;5895;41.950;24.372;2023-01-16T12:32:33;4.38;;;3.97;;
11677;SDS011;5895;41.950;24.372;2023-01-16T12:35:14;3.80;;;3.50;;
11677;SDS011;5895;41.950;24.372;2023-01-16T12:37:54;4.40;;;4.00;;
11677;SDS011;5895;41.950;24.372;2023-01-16T12:40:36;3.97;;;3.67;;
11677;SDS011;5895;41.950;24.372;2023-01-16T12:43:44;4.53;;;4.13;;
11677;SDS011;5895;41.950;24.372;2023-01-16T12:46:19;6.18;;;4.50;;
11677;SDS011;5895;41.950;24.372;2023-01-16T12:48:57;4.57;;;4.18;;
11677;SDS011;5895;41.950;24.372;2023-01-16T12:51:44;4.38;;;3.97;;
11677;SDS011;5895;41.950;24.372;2023-01-16T12:54:30;4.70;;;4.30;;
11677;SDS011;5895;41.950;24.372;2023-01-16T12:57:29;4.57;;;4.18;;
11677;SDS011;5895;41.950;24.372;2023-01-16T13:00:13;4.13;;;3.83;;
11677;SDS011;5895;41.950;24.372;2023-01-16T13:02:45;4.22;;;3.90;;
11677;SDS011;5895;41.950;24.372;2023-01-16T13:05:20;5.05;;;4.07;;
11677;SDS011;5895;41.950;24.372;2023-01-16T13:07:51;3.95;;;3.65;;
11677;SDS011;5895;41.950;24.372;2023-01-16T13:10:22;4.53;;;4.05;;
11677;SDS011;5895;41.950;24.372;2023-01-16T13:13:15;4.10;;;3.70;;
11677;SDS011;5895;41.950;24.372;2023-01-16T13:15:50;4.88;;;4.00;;
11677;SDS011;5895;41.950;24.372;2023-01-16T13:18:24;3.95;;;3.63;;
11677;SDS011;5895;41.950;24.372;2023-01-16T13:20:55;3.78;;;3.47;;
11677;SDS011;5895;41.950;24.372;2023-01-16T13:23:24;3.88;;;3.58;;
11677;SDS011;5895;41.950;24.372;2023-01-16T13:25:56;4.45;;;4.05;;
11677;SDS011;5895;41.950;24.372;2023-01-16T13:28:32;4.00;;;3.70;;
11677;SDS011;5895;41.950;24.372;2023-01-16T13:31:11;3.95;;;3.65;;
11677;SDS011;5895;41.950;24.372;2023-01-16T13:33:44;3.70;;;3.40;;
11677;SDS011;5895;41.950;24.372;2023-01-16T13:36:29;4.30;;;3.90;;
11677;SDS011;5895;41.950;24.372;2023-01-16T13:42:10;3.85;;;3.55;;
11677;SDS011;5895;41.950;24.372;2023-01-16T13:44:44;4.03;;;3.70;;
11677;SDS011;5895;41.950;24.372;2023-01-16T13:47:33;4.40;;;4.00;;
11677;SDS011;5895;41.950;24.372;2023-01-16T13:50:15;4.47;;;4.07;;
11677;SDS011;5895;41.950;24.372;2023-01-16T13:52:45;5.28;;;3.92;;
11677;SDS011;5895;41.950;24.372;2023-01-16T13:55:22;4.10;;;3.80;;
11677;SDS011;5895;41.950;24.372;2023-01-16T13:57:54;3.58;;;3.28;;
11677;SDS011;5895;41.950;24.372;2023-01-16T14:00:25;4.88;;;3.65;;
11677;SDS011;5895;41.950;24.372;2023-01-16T14:03:02;4.25;;;3.85;;
11677;SDS011;5895;41.950;24.372;2023-01-16T14:05:49;3.90;;;3.60;;
11677;SDS011;5895;41.950;24.372;2023-01-16T14:08:20;4.00;;;3.70;;
11677;SDS011;5895;41.950;24.372;2023-01-16T14:17:25;4.15;;;3.67;;
11677;SDS011;5895;41.950;24.372;2023-01-16T14:19:55;3.97;;;3.67;;
11677;SDS011;5895;41.950;24.372;2023-01-16T14:22:26;4.20;;;3.80;;
11677;SDS011;5895;41.950;24.372;2023-01-16T14:25:21;3.70;;;3.40;;
11677;SDS011;5895;41.950;24.372;2023-01-16T14:27:50;4.38;;;3.75;;
11677;SDS011;5895;41.950;24.372;2023-01-16T14:30:23;3.78;;;3.47;;
11677;SDS011;5895;41.950;24.372;2023-01-16T14:32:54;3.70;;;3.40;;
11677;SDS011;5895;41.950;24.372;2023-01-16T14:35:24;3.92;;;3.53;;
11677;SDS011;5895;41.950;24.372;2023-01-16T14:37:54;3.80;;;3.50;;
11677;SDS011;5895;41.950;24.372;2023-01-16T14:40:25;4.13;;;3.75;;
11677;SDS011;5895;41.950;24.372;2023-01-16T14:43:08;3.60;;;3.30;;
11677;SDS011;5895;41.950;24.372;2023-01-16T14:52:45;3.42;;;3.20;;
11677;SDS011;5895;41.950;24.372;2023-01-16T14:55:45;4.13;;;3.70;;
11677;SDS011;5895;41.950;24.372;2023-01-16T14:58:16;4.07;;;3.78;;
11677;SDS011;5895;41.950;24.372;2023-01-16T15:00:49;3.70;;;3.40;;
11677;SDS011;5895;41.950;24.372;2023-01-16T15:03:20;3.50;;;3.20;;
11677;SDS011;5895;41.950;24.372;2023-01-16T15:05:51;3.80;;;3.50;;
11677;SDS011;5895;41.950;24.372;2023-01-16T15:08:23;3.90;;;3.50;;
11677;SDS011;5895;41.950;24.372;2023-01-16T15:10:54;4.63;;;4.22;;
11677;SDS011;5895;41.950;24.372;2023-01-16T15:13:23;3.85;;;3.55;;
11677;SDS011;5895;41.950;24.372;2023-01-16T15:15:52;4.68;;;3.83;;
11677;SDS011;5895;41.950;24.372;2023-01-16T15:18:22;3.85;;;3.53;;
11677;SDS011;5895;41.950;24.372;2023-01-16T15:21:13;3.88;;;3.58;;
11677;SDS011;5895;41.950;24.372;2023-01-16T15:23:58;3.80;;;3.50;;
11677;SDS011;5895;41.950;24.372;2023-01-16T15:32:17;4.32;;;3.92;;
11677;SDS011;5895;41.950;24.372;2023-01-16T15:34:45;4.72;;;3.17;;
11677;SDS011;5895;41.950;24.372;2023-01-16T15:37:21;4.35;;;3.95;;
11677;SDS011;5895;41.950;24.372;2023-01-16T15:39:52;4.32;;;3.92;;
11677;SDS011;5895;41.950;24.372;2023-01-16T15:42:20;4.90;;;3.80;;
11677;SDS011;5895;41.950;24.372;2023-01-16T15:45:15;4.22;;;3.90;;
11677;SDS011;5895;41.950;24.372;2023-01-16T15:48:05;3.72;;;3.42;;
11677;SDS011;5895;41.950;24.372;2023-01-16T15:50:46;3.72;;;3.42;;
11677;SDS011;5895;41.950;24.372;2023-01-16T15:53:21;4.15;;;3.85;;